createdAt,value
2019-04-25T00:02:21.218Z,45.60
2019-04-25T00:04:51.633Z,45.70
2019-04-25T00:07:22.028Z,45.70
2019-04-25T00:09:55.492Z,45.70
2019-04-25T00:12:25.624Z,45.70
2019-04-25T00:14:57.384Z,45.60
2019-04-25T00:17:27.870Z,45.60
2019-04-25T00:19:58.068Z,45.70
2019-04-25T00:22:39.293Z,45.70
2019-04-25T00:25:23.297Z,45.70
2019-04-25T00:27:53.501Z,45.60
2019-04-25T00:30:25.300Z,45.60
2019-04-25T00:32:55.414Z,45.60
2019-04-25T00:35:25.557Z,45.70
2019-04-25T00:37:55.689Z,45.70
2019-04-25T00:40:25.829Z,45.60
2019-04-25T00:42:55.959Z,45.60
2019-04-25T00:45:27.055Z,45.60
2019-04-25T00:47:57.189Z,45.50
2019-04-25T00:50:27.328Z,46.00
2019-04-25T00:52:57.454Z,45.50
2019-04-25T00:55:29.025Z,45.50
2019-04-25T00:58:19.245Z,45.50
2019-04-25T01:00:54.292Z,45.50
2019-04-25T01:03:31.570Z,45.50
2019-04-25T01:06:03.433Z,45.50
2019-04-25T01:08:33.860Z,45.50
2019-04-25T01:11:04.011Z,45.60
2019-04-25T01:13:35.211Z,45.60
2019-04-25T01:16:05.408Z,45.50
2019-04-25T01:18:37.402Z,45.60
2019-04-25T01:21:07.376Z,45.60
2019-04-25T01:23:37.500Z,45.50
2019-04-25T01:26:07.638Z,45.50
2019-04-25T01:28:37.771Z,45.50
2019-04-25T01:31:09.550Z,45.50
2019-04-25T01:33:39.677Z,45.50
2019-04-25T01:36:23.406Z,45.50
2019-04-25T01:38:56.640Z,45.50
2019-04-25T01:41:31.212Z,45.50
2019-04-25T01:44:04.540Z,45.50
2019-04-25T01:46:36.439Z,45.50
2019-04-25T01:49:06.569Z,45.50
2019-04-25T01:51:36.713Z,45.40
2019-04-25T01:54:07.016Z,45.40
2019-04-25T01:56:37.146Z,45.50
2019-04-25T01:59:07.304Z,45.40
2019-04-25T02:01:39.298Z,45.40
2019-04-25T02:04:09.428Z,45.40
2019-04-25T02:06:39.932Z,45.50
2019-04-25T02:09:11.559Z,45.50
2019-04-25T02:11:45.987Z,45.40
2019-04-25T02:14:16.105Z,45.50
2019-04-25T02:16:46.414Z,45.50
2019-04-25T02:19:16.544Z,45.50
2019-04-25T02:21:46.684Z,45.40
2019-04-25T02:24:16.813Z,45.40
2019-04-25T02:26:47.920Z,45.40
2019-04-25T02:29:18.051Z,45.30
2019-04-25T02:31:48.198Z,45.40
2019-04-25T02:34:18.373Z,45.40
2019-04-25T02:36:48.487Z,45.40
2019-04-25T02:39:20.253Z,45.30
2019-04-25T02:41:50.382Z,45.30
2019-04-25T02:44:20.512Z,45.40
2019-04-25T02:47:08.554Z,45.50
2019-04-25T02:49:44.683Z,45.40
2019-04-25T02:52:18.169Z,45.40
2019-04-25T02:54:55.774Z,45.40
2019-04-25T02:57:26.236Z,45.50
2019-04-25T02:59:57.515Z,45.40
2019-04-25T03:02:28.203Z,45.30
2019-04-25T03:04:59.447Z,45.40
2019-04-25T03:07:30.078Z,45.30
2019-04-25T03:10:01.881Z,45.30
2019-04-25T03:12:34.392Z,45.40
2019-04-25T03:15:07.940Z,45.90
2019-04-25T03:17:37.001Z,45.30
2019-04-25T03:20:20.796Z,45.40
2019-04-25T03:22:50.954Z,45.40
2019-04-25T03:25:21.079Z,45.30
2019-04-25T03:27:51.222Z,45.30
2019-04-25T03:30:21.346Z,45.30
2019-04-25T03:32:51.777Z,45.30
2019-04-25T03:35:23.287Z,45.30
2019-04-25T03:37:54.491Z,45.30
2019-04-25T03:40:24.851Z,45.30
2019-04-25T03:42:54.995Z,45.30
2019-04-25T03:45:25.128Z,45.30
2019-04-25T03:47:55.245Z,45.30
2019-04-25T03:50:25.502Z,45.30
2019-04-25T03:52:55.716Z,45.30
2019-04-25T03:55:25.853Z,45.30
2019-04-25T03:57:55.974Z,45.30
2019-04-25T04:00:26.109Z,45.30
2019-04-25T04:02:56.315Z,45.20
2019-04-25T04:05:26.451Z,45.30
2019-04-25T04:07:56.564Z,45.30
2019-04-25T04:10:27.083Z,45.20
2019-04-25T04:12:57.220Z,45.30
2019-04-25T04:15:27.421Z,45.30
2019-04-25T04:18:01.915Z,45.30
2019-04-25T04:20:43.573Z,45.30
2019-04-25T04:23:15.554Z,45.20
2019-04-25T04:25:46.947Z,45.30
2019-04-25T04:28:17.078Z,45.30
2019-04-25T04:30:47.205Z,45.30
2019-04-25T04:33:29.569Z,45.10
2019-04-25T04:35:49.526Z,45.10
2019-04-25T04:38:19.673Z,45.20
2019-04-25T04:40:49.806Z,45.20
2019-04-25T04:43:19.936Z,45.20
2019-04-25T04:45:50.071Z,45.30
2019-04-25T04:48:20.205Z,45.20
2019-04-25T04:50:50.334Z,45.20
2019-04-25T04:53:20.463Z,45.20
2019-04-25T04:55:50.610Z,45.10
2019-04-25T04:58:20.741Z,44.90
2019-04-25T05:00:50.895Z,45.20
2019-04-25T05:03:26.711Z,45.20
2019-04-25T05:06:15.318Z,45.20
2019-04-25T05:08:47.930Z,45.30
2019-04-25T05:11:18.206Z,45.10
2019-04-25T05:13:48.282Z,45.10
2019-04-25T05:16:18.444Z,45.20
2019-04-25T05:18:48.568Z,45.10
2019-04-25T05:21:18.705Z,45.10
2019-04-25T05:23:48.846Z,45.10
2019-04-25T05:26:19.028Z,45.10
2019-04-25T05:28:49.123Z,45.10
2019-04-25T05:31:21.352Z,45.20
2019-04-25T05:33:51.486Z,45.20
2019-04-25T05:36:21.852Z,45.10
2019-04-25T05:38:53.916Z,45.30
2019-04-25T05:41:31.786Z,45.30
2019-04-25T05:44:01.912Z,45.30
2019-04-25T05:46:32.048Z,45.30
2019-04-25T05:49:03.486Z,45.30
2019-04-25T05:51:34.020Z,45.30
2019-04-25T05:54:04.254Z,45.20
2019-04-25T05:56:34.366Z,42.20
2019-04-25T05:59:05.623Z,39.00
2019-04-25T06:01:36.056Z,39.80
2019-04-25T06:04:06.282Z,41.20
2019-04-25T06:06:36.930Z,41.60
2019-04-25T06:09:21.890Z,42.30
2019-04-25T06:12:13.385Z,43.00
2019-04-25T06:14:43.617Z,43.50
2019-04-25T06:17:34.161Z,43.70
2019-04-25T06:20:07.935Z,43.70
2019-04-25T06:22:55.912Z,44.10
2019-04-25T06:25:32.707Z,43.90
2019-04-25T06:28:01.116Z,43.90
2019-04-25T06:30:31.658Z,44.00
2019-04-25T06:33:03.333Z,44.00
2019-04-25T06:35:35.912Z,44.10
2019-04-25T06:38:06.099Z,44.30
2019-04-25T06:40:36.227Z,44.40
2019-04-25T06:43:06.369Z,44.70
2019-04-25T06:45:38.135Z,44.80
2019-04-25T06:48:13.990Z,44.60
2019-04-25T06:50:45.178Z,44.70
2019-04-25T06:53:15.319Z,44.70
2019-04-25T06:55:45.452Z,43.40
2019-04-25T06:58:15.648Z,44.00
2019-04-25T07:00:58.170Z,44.10
2019-04-25T07:03:17.742Z,43.80
2019-04-25T07:05:47.935Z,43.40
2019-04-25T07:08:18.069Z,43.30
2019-04-25T07:10:48.194Z,43.10
2019-04-25T07:13:19.297Z,43.20
2019-04-25T07:15:49.424Z,43.30
2019-04-25T07:18:19.556Z,43.10
2019-04-25T07:20:49.673Z,43.10
2019-04-25T07:23:19.812Z,42.50
2019-04-25T07:25:51.593Z,42.70
2019-04-25T07:28:29.035Z,42.30
2019-04-25T07:31:07.367Z,42.00
2019-04-25T07:33:39.146Z,41.80
2019-04-25T07:36:09.271Z,41.70
2019-04-25T07:38:39.512Z,41.90
2019-04-25T07:41:09.632Z,41.80
2019-04-25T07:43:39.803Z,42.70
2019-04-25T07:46:09.923Z,42.40
2019-04-25T07:48:40.073Z,42.00
2019-04-25T07:51:10.221Z,42.40
2019-04-25T07:53:40.368Z,42.40
2019-04-25T07:56:10.497Z,42.50
2019-04-25T07:58:49.171Z,42.80
2019-04-25T08:01:13.969Z,42.90
2019-04-25T08:03:44.659Z,43.10
2019-04-25T08:06:14.855Z,43.60
2019-04-25T08:08:45.057Z,43.10
2019-04-25T08:11:15.182Z,43.20
2019-04-25T08:13:59.006Z,43.20
2019-04-25T08:16:31.072Z,43.30
2019-04-25T08:19:03.703Z,43.40
2019-04-25T08:21:35.706Z,43.40
2019-04-25T08:24:07.761Z,43.40
2019-04-25T08:26:38.256Z,43.70
2019-04-25T08:29:08.812Z,43.70
2019-04-25T08:31:39.354Z,43.70
2019-04-25T08:34:09.614Z,43.70
2019-04-25T08:36:40.033Z,43.60
2019-04-25T08:39:12.122Z,43.80
2019-04-25T08:41:45.438Z,43.70
2019-04-25T08:44:14.344Z,43.50
2019-04-25T08:46:48.433Z,43.70
2019-04-25T08:49:20.838Z,43.50
2019-04-25T08:51:55.504Z,43.70
2019-04-25T08:54:47.366Z,43.60
2019-04-25T08:57:21.459Z,43.70
2019-04-25T09:00:06.108Z,43.70
2019-04-25T09:02:40.605Z,43.80
2019-04-25T09:05:29.696Z,43.90
2019-04-25T09:07:59.850Z,43.90
2019-04-25T09:10:29.977Z,43.70
2019-04-25T09:13:00.102Z,43.70
2019-04-25T09:15:30.318Z,43.60
2019-04-25T09:18:00.435Z,43.80
2019-04-25T09:20:30.560Z,43.70
2019-04-25T09:23:00.709Z,43.60
2019-04-25T09:25:30.842Z,44.00
2019-04-25T09:28:00.969Z,43.70
2019-04-25T09:30:33.968Z,42.70
2019-04-25T09:33:04.712Z,42.40
2019-04-25T09:35:36.027Z,42.60
2019-04-25T09:38:06.379Z,43.10
2019-04-25T09:40:37.259Z,43.60
2019-04-25T09:43:09.540Z,43.70
2019-04-25T09:45:57.701Z,44.20
2019-04-25T09:48:29.478Z,44.40
2019-04-25T09:51:13.535Z,44.40
2019-04-25T09:53:50.020Z,44.80
2019-04-25T09:56:27.825Z,44.70
2019-04-25T09:58:59.602Z,44.70
2019-04-25T10:01:29.900Z,44.90
2019-04-25T10:04:00.045Z,45.00
2019-04-25T10:06:30.180Z,44.90
2019-04-25T10:09:00.495Z,45.20
2019-04-25T10:11:33.498Z,45.20
2019-04-25T10:14:32.642Z,45.40
2019-04-25T10:17:03.803Z,45.20
2019-04-25T10:19:34.472Z,45.00
2019-04-25T10:22:05.748Z,44.90
2019-04-25T10:24:35.959Z,45.10
2019-04-25T10:27:06.082Z,44.80
2019-04-25T10:29:44.914Z,44.80
2019-04-25T10:32:08.034Z,44.80
2019-04-25T10:34:38.166Z,45.00
2019-04-25T10:37:08.463Z,44.90
2019-04-25T10:39:39.154Z,45.20
2019-04-25T10:42:11.267Z,45.60
2019-04-25T10:44:41.811Z,45.20
2019-04-25T10:47:12.017Z,44.90
2019-04-25T10:49:42.599Z,45.60
2019-04-25T10:52:13.962Z,45.90
2019-04-25T10:54:45.794Z,46.00
2019-04-25T10:57:16.434Z,46.20
2019-04-25T10:59:57.883Z,46.30
2019-04-25T11:02:18.515Z,46.20
2019-04-25T11:04:54.537Z,46.10
2019-04-25T11:07:24.948Z,46.10
2019-04-25T11:09:55.197Z,46.00
2019-04-25T11:12:25.279Z,46.50
2019-04-25T11:14:56.305Z,46.60
2019-04-25T11:17:27.098Z,46.20
2019-04-25T11:20:09.201Z,46.30
2019-04-25T11:22:39.600Z,46.30
2019-04-25T11:25:10.117Z,46.40
2019-04-25T11:27:41.198Z,46.20
2019-04-25T11:30:11.707Z,46.30
2019-04-25T11:32:42.191Z,46.30
2019-04-25T11:35:13.953Z,46.20
2019-04-25T11:37:44.324Z,46.10
2019-04-25T11:40:19.841Z,46.00
2019-04-25T11:42:50.394Z,46.00
2019-04-25T11:45:20.521Z,46.00
2019-04-25T11:47:50.665Z,45.90
2019-04-25T11:50:20.788Z,45.90
2019-04-25T11:52:50.920Z,45.90
2019-04-25T11:55:21.062Z,45.90
2019-04-25T11:57:52.439Z,45.80
2019-04-25T12:00:25.029Z,45.80
2019-04-25T12:02:56.113Z,45.80
2019-04-25T12:05:26.559Z,46.20
2019-04-25T12:07:56.714Z,45.80
2019-04-25T12:10:27.469Z,45.80
2019-04-25T12:12:57.931Z,45.60
2019-04-25T12:15:28.725Z,45.60
2019-04-25T12:17:58.882Z,45.60
2019-04-25T12:20:29.143Z,45.50
2019-04-25T12:23:08.305Z,45.40
2019-04-25T12:25:31.178Z,45.40
2019-04-25T12:28:01.307Z,45.40
2019-04-25T12:30:38.180Z,45.40
2019-04-25T12:33:03.635Z,45.40
2019-04-25T12:35:33.792Z,45.40
2019-04-25T12:38:03.936Z,45.40
2019-04-25T12:40:34.369Z,45.30
2019-04-25T12:43:05.271Z,45.20
2019-04-25T12:45:53.273Z,45.30
2019-04-25T12:48:23.584Z,45.20
2019-04-25T12:50:55.344Z,45.30
2019-04-25T12:53:25.567Z,45.30
2019-04-25T12:55:56.209Z,45.30
2019-04-25T12:58:26.446Z,45.30
2019-04-25T13:00:59.724Z,45.20
2019-04-25T13:03:28.956Z,45.20
2019-04-25T13:05:59.101Z,45.10
2019-04-25T13:08:29.282Z,45.20
2019-04-25T13:11:07.919Z,45.20
2019-04-25T13:13:31.350Z,45.20
2019-04-25T13:16:01.552Z,45.20
2019-04-25T13:18:31.886Z,45.10
2019-04-25T13:21:03.524Z,45.10
2019-04-25T13:23:34.291Z,45.10
2019-04-25T13:26:05.414Z,45.00
2019-04-25T13:28:46.188Z,45.00
2019-04-25T13:31:18.045Z,45.00
2019-04-25T13:33:54.248Z,44.80
2019-04-25T13:36:25.744Z,45.00
2019-04-25T13:38:57.081Z,45.10
2019-04-25T13:41:27.560Z,45.10
2019-04-25T13:43:58.116Z,45.40
2019-04-25T13:46:29.528Z,45.00
2019-04-25T13:48:59.682Z,45.00
2019-04-25T13:51:30.729Z,45.10
2019-04-25T13:54:00.937Z,45.10
2019-04-25T13:56:33.682Z,45.10
2019-04-25T13:59:04.419Z,45.20
2019-04-25T14:01:34.549Z,45.30
2019-04-25T14:04:05.372Z,45.20
2019-04-25T14:06:35.507Z,45.30
2019-04-25T14:09:08.543Z,45.20
2019-04-25T14:11:40.367Z,45.20
2019-04-25T14:14:11.667Z,45.20
2019-04-25T14:17:02.885Z,45.20
2019-04-25T14:19:39.553Z,45.20
2019-04-25T14:22:09.696Z,45.20
2019-04-25T14:24:39.830Z,45.20
2019-04-25T14:27:11.630Z,45.30
2019-04-25T14:29:41.773Z,45.30
2019-04-25T14:32:13.910Z,45.30
2019-04-25T14:34:44.369Z,45.30
2019-04-25T14:37:14.620Z,45.30
2019-04-25T14:39:44.733Z,45.50
2019-04-25T14:42:14.934Z,45.50
2019-04-25T14:44:45.072Z,45.60
2019-04-25T14:47:15.443Z,45.70
2019-04-25T14:50:00.524Z,45.90
2019-04-25T14:52:30.645Z,46.00
2019-04-25T14:55:08.006Z,45.70
2019-04-25T14:57:38.121Z,45.90
2019-04-25T15:00:09.896Z,46.20
2019-04-25T15:02:40.781Z,46.00
2019-04-25T15:05:10.912Z,45.90
2019-04-25T15:07:41.062Z,45.80
2019-04-25T15:10:11.179Z,45.70
2019-04-25T15:12:41.310Z,45.80
2019-04-25T15:15:11.538Z,45.80
2019-04-25T15:17:46.466Z,45.80
2019-04-25T15:20:14.534Z,46.00
2019-04-25T15:22:44.665Z,45.70
2019-04-25T15:25:14.787Z,45.70
2019-04-25T15:27:44.923Z,45.70
2019-04-25T15:30:19.797Z,45.60
2019-04-25T15:32:50.098Z,45.70
2019-04-25T15:35:21.870Z,45.80
2019-04-25T15:37:53.688Z,45.70
2019-04-25T15:40:26.328Z,45.80
2019-04-25T15:43:16.283Z,45.80
2019-04-25T15:45:48.059Z,45.70
2019-04-25T15:48:18.209Z,45.70
2019-04-25T15:50:48.338Z,45.70
2019-04-25T15:53:18.493Z,45.70
2019-04-25T15:55:48.640Z,45.70
2019-04-25T15:58:18.771Z,45.70
2019-04-25T16:00:48.925Z,45.80
2019-04-25T16:03:19.043Z,45.80
2019-04-25T16:05:49.202Z,45.90
2019-04-25T16:08:19.342Z,46.10
2019-04-25T16:10:49.476Z,46.10
2019-04-25T16:13:19.607Z,45.90
2019-04-25T16:15:49.737Z,46.00
2019-04-25T16:18:19.964Z,45.90
2019-04-25T16:20:50.094Z,45.80
2019-04-25T16:23:20.313Z,45.80
2019-04-25T16:25:50.435Z,45.80
2019-04-25T16:28:20.585Z,45.70
2019-04-25T16:30:50.838Z,45.70
2019-04-25T16:33:20.978Z,45.70
2019-04-25T16:35:51.105Z,45.60
2019-04-25T16:38:21.246Z,45.60
2019-04-25T16:40:51.534Z,45.50
2019-04-25T16:43:23.307Z,45.50
2019-04-25T16:45:55.148Z,45.40
2019-04-25T16:48:26.359Z,45.50
2019-04-25T16:50:56.487Z,45.90
2019-04-25T16:53:26.780Z,45.50
2019-04-25T16:55:56.899Z,45.50
2019-04-25T16:58:27.039Z,45.60
2019-04-25T17:00:58.798Z,45.60
2019-04-25T17:03:31.237Z,46.10
2019-04-25T17:06:00.919Z,45.50
2019-04-25T17:08:31.144Z,45.50
2019-04-25T17:11:01.261Z,45.50
2019-04-25T17:13:33.795Z,45.50
2019-04-25T17:16:05.585Z,45.40
2019-04-25T17:18:38.233Z,45.50
2019-04-25T17:21:11.739Z,45.50
2019-04-25T17:23:41.993Z,45.50
2019-04-25T17:26:12.661Z,45.50
2019-04-25T17:28:44.367Z,45.50
2019-04-25T17:31:22.092Z,45.50
2019-04-25T17:33:56.537Z,45.50
2019-04-25T17:36:28.315Z,45.50
2019-04-25T17:39:16.218Z,45.50
2019-04-25T17:41:46.352Z,45.60
2019-04-25T17:44:16.491Z,45.70
2019-04-25T17:46:46.618Z,45.60
2019-04-25T17:49:16.762Z,45.50
2019-04-25T17:51:48.041Z,45.50
2019-04-25T17:54:18.537Z,45.60
2019-04-25T17:56:48.787Z,45.60
2019-04-25T17:59:18.915Z,45.60
2019-04-25T18:01:49.051Z,45.70
2019-04-25T18:04:20.257Z,45.70
2019-04-25T18:06:50.427Z,45.70
2019-04-25T18:09:20.602Z,46.00
2019-04-25T18:11:50.697Z,45.70
2019-04-25T18:14:20.843Z,45.60
2019-04-25T18:16:51.125Z,45.60
2019-04-25T18:19:25.162Z,46.20
2019-04-25T18:21:57.310Z,45.80
2019-04-25T18:24:41.303Z,45.80
2019-04-25T18:27:13.092Z,45.80
2019-04-25T18:29:43.683Z,45.80
2019-04-25T18:32:13.830Z,45.80
2019-04-25T18:34:46.478Z,45.90
2019-04-25T18:37:34.624Z,45.90
2019-04-25T18:40:14.129Z,45.90
2019-04-25T18:42:54.615Z,46.00
2019-04-25T18:45:26.604Z,45.90
2019-04-25T18:47:57.158Z,46.00
2019-04-25T18:50:28.931Z,45.90
2019-04-25T18:53:17.052Z,45.90
2019-04-25T18:55:57.605Z,45.90
2019-04-25T18:58:46.138Z,45.90
2019-04-25T19:01:26.726Z,45.90
2019-04-25T19:04:14.340Z,45.90
2019-04-25T19:06:55.212Z,45.80
2019-04-25T19:09:16.486Z,45.80
2019-04-25T19:11:47.176Z,45.80
2019-04-25T19:14:17.417Z,45.80
2019-04-25T19:16:47.681Z,45.80
2019-04-25T19:19:18.097Z,45.70
2019-04-25T19:21:49.176Z,45.70
2019-04-25T19:24:20.186Z,45.80
2019-04-25T19:26:50.676Z,46.40
2019-04-25T19:29:20.821Z,45.90
2019-04-25T19:31:53.009Z,45.90
2019-04-25T19:34:22.881Z,45.50
2019-04-25T19:36:53.006Z,45.00
2019-04-25T19:39:24.790Z,44.70
2019-04-25T19:42:11.628Z,44.60
2019-04-25T19:44:42.323Z,44.50
2019-04-25T19:47:13.019Z,44.50
2019-04-25T19:49:43.345Z,45.10
2019-04-25T19:52:13.482Z,44.60
2019-04-25T19:54:43.721Z,44.50
2019-04-25T19:57:13.777Z,44.50
2019-04-25T19:59:44.697Z,44.40
2019-04-25T20:02:25.891Z,44.40
2019-04-25T20:05:01.900Z,44.40
2019-04-25T20:07:34.145Z,44.40
2019-04-25T20:10:07.354Z,44.40
2019-04-25T20:12:39.110Z,44.90
2019-04-25T20:15:09.335Z,44.80
2019-04-25T20:17:39.448Z,44.80
2019-04-25T20:20:10.563Z,44.60
2019-04-25T20:22:40.700Z,44.50
2019-04-25T20:25:11.411Z,44.40
2019-04-25T20:27:41.534Z,44.50
2019-04-25T20:30:12.281Z,44.40
2019-04-25T20:32:42.480Z,44.50
2019-04-25T20:35:12.611Z,44.40
2019-04-25T20:37:42.744Z,44.40
2019-04-25T20:40:12.988Z,44.90
2019-04-25T20:42:43.378Z,44.50
2019-04-25T20:45:13.686Z,44.60
2019-04-25T20:47:43.875Z,44.40
2019-04-25T20:50:14.115Z,44.20
2019-04-25T20:52:44.263Z,44.30
2019-04-25T20:55:14.503Z,44.20
2019-04-25T20:57:44.644Z,43.80
2019-04-25T21:00:34.557Z,44.30
2019-04-25T21:03:04.776Z,44.10
2019-04-25T21:05:35.116Z,44.30
2019-04-25T21:08:05.471Z,44.10
2019-04-25T21:10:35.614Z,44.10
2019-04-25T21:13:07.392Z,44.20
2019-04-25T21:15:42.434Z,44.40
2019-04-25T21:18:14.202Z,44.30
2019-04-25T21:20:44.332Z,44.30
2019-04-25T21:23:14.457Z,44.40
2019-04-25T21:25:44.598Z,44.30
2019-04-25T21:28:14.730Z,44.60
2019-04-25T21:30:44.894Z,44.40
2019-04-25T21:33:15.087Z,44.40
2019-04-25T21:35:47.367Z,44.60
2019-04-25T21:38:17.778Z,44.60
2019-04-25T21:40:51.343Z,44.60
2019-04-25T21:43:23.481Z,44.70
2019-04-25T21:45:54.277Z,44.70
2019-04-25T21:48:24.742Z,44.70
2019-04-25T21:50:55.161Z,44.80
2019-04-25T21:53:25.364Z,44.80
2019-04-25T21:55:56.000Z,44.70
2019-04-25T21:58:26.384Z,44.70
2019-04-25T22:00:58.351Z,44.70
2019-04-25T22:03:30.168Z,44.80
2019-04-25T22:06:00.829Z,44.80
2019-04-25T22:08:31.058Z,44.80
2019-04-25T22:11:01.298Z,44.80
2019-04-25T22:13:31.480Z,44.90
2019-04-25T22:16:01.912Z,45.00
2019-04-25T22:18:32.527Z,45.00
2019-04-25T22:21:02.999Z,45.00
2019-04-25T22:23:33.168Z,45.10
2019-04-25T22:26:03.509Z,45.10
2019-04-25T22:28:33.908Z,45.10
2019-04-25T22:31:05.977Z,45.10
2019-04-25T22:33:49.938Z,45.10
2019-04-25T22:36:22.110Z,45.20
2019-04-25T22:39:11.321Z,45.10
2019-04-25T22:41:46.478Z,45.20
2019-04-25T22:44:18.133Z,45.20
2019-04-25T22:46:48.556Z,45.20
2019-04-25T22:49:18.679Z,45.30
2019-04-25T22:51:49.184Z,45.30
2019-04-25T22:54:19.603Z,45.30
2019-04-25T22:56:49.816Z,45.30
2019-04-25T22:59:20.321Z,45.30
2019-04-25T23:02:08.612Z,45.30
2019-04-25T23:04:41.405Z,45.30
2019-04-25T23:07:12.309Z,45.30
2019-04-25T23:09:42.432Z,45.30
2019-04-25T23:12:12.841Z,45.30
2019-04-25T23:14:43.243Z,45.30
2019-04-25T23:17:13.440Z,45.30
2019-04-25T23:19:43.981Z,45.30
2019-04-25T23:22:14.121Z,45.40
2019-04-25T23:24:45.891Z,45.40
2019-04-25T23:27:20.699Z,45.40
2019-04-25T23:29:50.818Z,45.40
2019-04-25T23:32:21.328Z,45.40
2019-04-25T23:34:51.463Z,45.60
2019-04-25T23:37:22.563Z,45.40
2019-04-25T23:39:52.687Z,45.40
2019-04-25T23:42:22.919Z,45.40
2019-04-25T23:44:53.337Z,45.40
2019-04-25T23:47:23.487Z,45.40
2019-04-25T23:49:53.629Z,45.70
2019-04-25T23:52:23.965Z,45.30
2019-04-25T23:54:54.329Z,45.40
2019-04-25T23:57:24.762Z,45.40
2019-04-25T23:59:54.878Z,45.50
